Terminal Aerodrome Forecast
Issued by NWS Twin Cities, MN

Home | Current Version | Previous Version | Graphics & Text | Print | Product List | Glossary On
Versions: 1 2 3 4 5 6 7 8 9 10 11 12 13 14 15 16
000
FTUS43 KMPX 022342
TAFEAU
TAF
KEAU 022342Z 0300/0324 17007KT P6SM BKN100
     FM031100 14008KT 1 1/2SM -SN OVC015
      TEMPO 0314/0316 3/4SM -SN VV007
     FM031800 29017G22KT 1 1/2SM -SN BKN007 OVC015
     FM032000 31020G25KT 4SM -SN FEW007 OVC020=

USA.gov is the U.S. government's official web portal to all federal, state and local government web resources and services.